Time;durP1;ratioP1;P1;durP2;ratioP2;P2;SDS_P1;SDS_P2;PMS_P1;PMS_P2;Temp;Humidity;BMP_temperature;BMP_pressure;BME280_temperature;BME280_humidity;BME280_pressure;Samples;Min_cycle;Max_cycle;Signal;HPM_P1;HPM_P2
2022/10/26 00:01:24;;;;;;;23.00;15.80;;;;;;;;;;5030303;28;20112;-63
2022/10/26 00:03:49;;;;;;;20.23;14.80;;;;;;;;;;5031168;28;20014;-63
2022/10/26 00:06:16;;;;;;;23.08;15.20;;;;;;;;;;5030900;28;20056;-63
2022/10/26 00:08:42;;;;;;;26.15;16.70;;;;;;;;;;5029499;28;20033;-63
2022/10/26 00:11:07;;;;;;;20.83;15.40;;;;;;;;;;5031277;28;20025;-63
2022/10/26 00:13:33;;;;;;;27.92;13.70;;;;;;;;;;5029222;28;20510;-64
2022/10/26 00:15:58;;;;;;;19.95;14.52;;;;;;;;;;5030976;28;20018;-64
2022/10/26 00:18:23;;;;;;;25.33;17.33;;;;;;;;;;5029648;28;20041;-64
2022/10/26 00:20:49;;;;;;;23.83;15.50;;;;;;;;;;5031038;28;20021;-64
2022/10/26 00:23:14;;;;;;;27.50;15.45;;;;;;;;;;5029520;28;20454;-63
2022/10/26 00:25:39;;;;;;;24.15;17.08;;;;;;;;;;5030453;28;20560;-63
2022/10/26 00:28:04;;;;;;;23.90;16.27;;;;;;;;;;5029412;28;20033;-63
2022/10/26 00:30:29;;;;;;;21.40;14.60;;;;;;;;;;5030708;28;20025;-63
2022/10/26 00:32:54;;;;;;;25.45;18.17;;;;;;;;;;5029424;28;20095;-63
2022/10/26 00:35:20;;;;;;;24.20;15.90;;;;;;;;;;5030523;28;20401;-63
2022/10/26 00:37:45;;;;;;;27.92;14.93;;;;;;;;;;5028884;28;20044;-63
2022/10/26 00:40:10;;;;;;;23.30;15.37;;;;;;;;;;5030687;28;20021;-62
2022/10/26 00:42:35;;;;;;;23.83;17.10;;;;;;;;;;5029258;28;21021;-62
2022/10/26 00:45:16;;;;;;;29.90;18.70;;;;;;;;;;5030984;28;20022;-62
2022/10/26 00:47:44;;;;;;;30.40;20.35;;;;;;;;;;5028355;28;20100;-62
2022/10/26 00:50:12;;;;;;;22.10;12.93;;;;;;;;;;5030872;28;20025;-62
2022/10/26 00:52:37;;;;;;;30.95;19.20;;;;;;;;;;5029245;28;20038;-61
2022/10/26 00:55:03;;;;;;;28.02;20.05;;;;;;;;;;5030831;28;20093;-62
2022/10/26 00:57:28;;;;;;;27.52;18.15;;;;;;;;;;5028545;28;20038;-61
2022/10/26 00:59:55;;;;;;;23.02;18.25;;;;;;;;;;5031232;28;20028;-61
2022/10/26 01:02:20;;;;;;;24.27;16.83;;;;;;;;;;5029048;28;20036;-61
2022/10/26 01:04:46;;;;;;;23.30;18.03;;;;;;;;;;5032489;28;20380;-61
2022/10/26 01:07:11;;;;;;;60.00;20.92;;;;;;;;;;5032835;28;20451;-62
2022/10/26 01:09:36;;;;;;;36.72;20.42;;;;;;;;;;5033564;28;20033;-61
2022/10/26 01:12:01;;;;;;;29.07;19.40;;;;;;;;;;5033341;28;20033;-62
2022/10/26 01:14:27;;;;;;;26.08;17.83;;;;;;;;;;5034464;28;20025;-62
2022/10/26 01:16:55;;;;;;;39.53;23.02;;;;;;;;;;5032814;28;20068;-62
2022/10/26 01:19:35;;;;;;;28.67;19.20;;;;;;;;;;5033099;28;20423;-62
2022/10/26 01:22:14;;;;;;;28.70;18.05;;;;;;;;;;5033208;28;20048;-61
2022/10/26 01:24:52;;;;;;;27.05;18.75;;;;;;;;;;5033662;28;20021;-61
2022/10/26 01:27:26;;;;;;;28.17;18.25;;;;;;;;;;5032829;28;20063;-63
2022/10/26 01:29:57;;;;;;;27.88;20.25;;;;;;;;;;5032934;28;20425;-62
2022/10/26 01:32:25;;;;;;;34.13;19.83;;;;;;;;;;5032175;28;20539;-63
2022/10/26 01:35:02;;;;;;;29.13;18.75;;;;;;;;;;5034446;28;20905;-62
2022/10/26 01:37:29;;;;;;;38.03;20.50;;;;;;;;;;5032303;28;20048;-62
2022/10/26 01:40:10;;;;;;;24.83;15.85;;;;;;;;;;5033764;28;20119;-63
2022/10/26 01:42:37;;;;;;;28.70;19.35;;;;;;;;;;5032494;28;20048;-62
2022/10/26 01:45:05;;;;;;;27.88;17.90;;;;;;;;;;5034289;28;20049;-62
2022/10/26 01:47:32;;;;;;;31.42;18.17;;;;;;;;;;5031699;28;20052;-63
2022/10/26 01:49:59;;;;;;;30.58;17.63;;;;;;;;;;5033812;28;20029;-62
2022/10/26 01:52:24;;;;;;;28.27;18.52;;;;;;;;;;5032009;28;20091;-62
2022/10/26 01:54:49;;;;;;;32.53;18.88;;;;;;;;;;5033369;28;20025;-62
2022/10/26 01:57:17;;;;;;;29.13;18.27;;;;;;;;;;5032332;28;20038;-63
2022/10/26 02:00:03;;;;;;;32.20;19.80;;;;;;;;;;5033773;28;20423;-63
2022/10/26 02:02:28;;;;;;;26.15;17.15;;;;;;;;;;5031518;28;20040;-63
2022/10/26 02:04:59;;;;;;;28.55;19.05;;;;;;;;;;5033444;28;20104;-63
2022/10/26 02:07:33;;;;;;;36.65;19.02;;;;;;;;;;5031776;28;20052;-63
2022/10/26 02:10:03;;;;;;;27.15;17.17;;;;;;;;;;5033411;28;20040;-63
2022/10/26 02:12:44;;;;;;;24.85;16.15;;;;;;;;;;5031914;28;20044;-63
2022/10/26 02:15:35;;;;;;;26.42;16.00;;;;;;;;;;5032873;28;20032;-63
2022/10/26 02:18:13;;;;;;;29.95;15.27;;;;;;;;;;5010173;28;20038;-63
2022/10/26 02:20:41;;;;;;;24.13;15.70;;;;;;;;;;5016632;28;20380;-63
2022/10/26 02:23:07;;;;;;;27.65;20.80;;;;;;;;;;5031647;28;20614;-63
2022/10/26 02:25:34;;;;;;;40.50;16.65;;;;;;;;;;5032830;28;20104;-63
2022/10/26 02:28:03;;;;;;;26.15;16.92;;;;;;;;;;5032069;28;20503;-63
2022/10/26 02:30:28;;;;;;;;;;;;;;;;;;5033056;28;20033;-63
2022/10/26 02:32:55;;;;;;;20.10;15.25;;;;;;;;;;5031122;28;19913;-63
2022/10/26 02:35:22;;;;;;;24.55;15.80;;;;;;;;;;5032699;28;20077;-63
2022/10/26 02:37:47;;;;;;;25.65;16.15;;;;;;;;;;5030922;28;20033;-63
2022/10/26 02:40:15;;;;;;;23.33;16.77;;;;;;;;;;5033371;28;20025;-63
2022/10/26 02:42:42;;;;;;;22.00;18.40;;;;;;;;;;5031139;28;20395;-63
2022/10/26 02:45:10;;;;;;;25.80;16.15;;;;;;;;;;5032766;28;20080;-63
2022/10/26 02:47:35;;;;;;;20.45;15.30;;;;;;;;;;5030947;28;20068;-62
2022/10/26 02:50:00;;;;;;;37.93;16.17;;;;;;;;;;5032799;28;20480;-63
2022/10/26 02:52:31;;;;;;;21.35;16.27;;;;;;;;;;5031034;28;20440;-63
2022/10/26 02:55:19;;;;;;;22.50;15.93;;;;;;;;;;5032478;28;20092;-63
2022/10/26 02:57:47;;;;;;;21.27;15.48;;;;;;;;;;5031065;28;20042;-62
2022/10/26 03:00:16;;;;;;;26.27;16.13;;;;;;;;;;5032233;28;20017;-62
2022/10/26 03:02:42;;;;;;;22.67;14.07;;;;;;;;;;5030799;28;20037;-63
2022/10/26 03:05:10;;;;;;;19.90;14.43;;;;;;;;;;5032573;28;20026;-62
2022/10/26 03:07:35;;;;;;;19.98;15.52;;;;;;;;;;5030087;28;20120;-63
2022/10/26 03:10:00;;;;;;;26.00;15.57;;;;;;;;;;5032570;28;20171;-63
2022/10/26 03:12:25;;;;;;;19.70;13.00;;;;;;;;;;5030576;28;20079;-62
2022/10/26 03:14:50;;;;;;;21.55;13.20;;;;;;;;;;5032067;28;20436;-63
2022/10/26 03:17:16;;;;;;;19.02;14.23;;;;;;;;;;5030493;28;20048;-63
2022/10/26 03:19:41;;;;;;;21.52;14.23;;;;;;;;;;5032114;28;20079;-64
2022/10/26 03:22:06;;;;;;;20.10;15.80;;;;;;;;;;5030638;28;20426;-63
2022/10/26 03:24:31;;;;;;;29.80;15.15;;;;;;;;;;5032185;28;20025;-64
2022/10/26 03:26:56;;;;;;;23.67;14.95;;;;;;;;;;5030245;28;20116;-64
2022/10/26 03:29:21;;;;;;;23.92;14.52;;;;;;;;;;5030649;28;20026;-62
2022/10/26 03:31:47;;;;;;;19.83;13.65;;;;;;;;;;5030336;28;20037;-63
2022/10/26 03:34:13;;;;;;;14.57;13.07;;;;;;;;;;5032351;28;20049;-62
2022/10/26 03:36:38;;;;;;;22.33;14.60;;;;;;;;;;5029601;28;20114;-62
2022/10/26 03:39:03;;;;;;;16.90;13.77;;;;;;;;;;5031764;28;21201;-62
2022/10/26 03:41:28;;;;;;;24.65;12.90;;;;;;;;;;5030331;28;20032;-62
2022/10/26 03:43:53;;;;;;;23.67;14.35;;;;;;;;;;5031407;28;20025;-62
2022/10/26 03:46:18;;;;;;;17.75;14.13;;;;;;;;;;5030071;28;20397;-62
2022/10/26 03:48:43;;;;;;;24.13;13.27;;;;;;;;;;5031493;28;20440;-62
2022/10/26 03:51:09;;;;;;;19.05;12.80;;;;;;;;;;5031629;28;20029;-63
2022/10/26 03:53:34;;;;;;;21.92;15.35;;;;;;;;;;5029517;28;20065;-63
2022/10/26 03:55:59;;;;;;;20.10;12.77;;;;;;;;;;5031068;28;20044;-64
2022/10/26 03:58:24;;;;;;;16.98;13.82;;;;;;;;;;5030125;28;20930;-61
2022/10/26 04:00:49;;;;;;;19.23;11.60;;;;;;;;;;5031155;28;20040;-61
2022/10/26 04:03:15;;;;;;;15.32;11.82;;;;;;;;;;5030121;28;20099;-62
2022/10/26 04:05:40;;;;;;;16.38;12.88;;;;;;;;;;5031056;28;20068;-60
2022/10/26 04:08:05;;;;;;;16.85;12.30;;;;;;;;;;5029582;28;20544;-60
2022/10/26 04:10:30;;;;;;;21.77;12.53;;;;;;;;;;5030746;28;20056;-60
2022/10/26 04:12:57;;;;;;;23.08;12.00;;;;;;;;;;5029847;28;21025;-61
2022/10/26 04:15:22;;;;;;;15.60;13.15;;;;;;;;;;5031048;28;20071;-60
2022/10/26 04:17:53;;;;;;;14.95;11.70;;;;;;;;;;5029404;28;20444;-60
2022/10/26 04:20:18;;;;;;;18.38;12.18;;;;;;;;;;5031235;28;20021;-60
2022/10/26 04:22:44;;;;;;;14.38;11.07;;;;;;;;;;5029055;28;20045;-60
2022/10/26 04:25:10;;;;;;;13.10;11.73;;;;;;;;;;5031084;28;20057;-61
2022/10/26 04:27:35;;;;;;;16.77;10.25;;;;;;;;;;5029449;28;20056;-60
2022/10/26 04:30:00;;;;;;;15.67;11.20;;;;;;;;;;5030744;28;20393;-60
2022/10/26 04:32:25;;;;;;;18.60;10.50;;;;;;;;;;5029513;28;20030;-60
2022/10/26 04:34:53;;;;;;;11.68;10.40;;;;;;;;;;5030702;28;20456;-60
2022/10/26 04:37:18;;;;;;;11.60;10.32;;;;;;;;;;5028760;28;20143;-60
2022/10/26 04:39:43;;;;;;;16.77;11.10;;;;;;;;;;5030550;28;20017;-60
2022/10/26 04:42:08;;;;;;;23.52;11.00;;;;;;;;;;5029706;28;20606;-61
2022/10/26 04:44:33;;;;;;;18.00;10.40;;;;;;;;;;5030631;28;20063;-61
2022/10/26 04:46:58;;;;;;;13.70;10.38;;;;;;;;;;5028870;28;20044;-61
2022/10/26 04:49:24;;;;;;;15.80;10.80;;;;;;;;;;5031042;28;20075;-61
2022/10/26 04:51:49;;;;;;;14.25;7.65;;;;;;;;;;5028770;28;20040;-61
2022/10/26 04:54:14;;;;;;;12.45;10.10;;;;;;;;;;5031057;28;20088;-62
2022/10/26 04:56:39;;;;;;;10.55;9.32;;;;;;;;;;5028934;28;20104;-62
2022/10/26 04:59:04;;;;;;;15.98;10.93;;;;;;;;;;5030483;28;20030;-61
2022/10/26 05:01:30;;;;;;;12.17;9.30;;;;;;;;;;5029285;28;20021;-61
2022/10/26 05:03:55;;;;;;;15.05;11.15;;;;;;;;;;5030933;28;20486;-61
2022/10/26 05:06:21;;;;;;;16.23;9.65;;;;;;;;;;5028255;28;20068;-61
2022/10/26 05:08:46;;;;;;;14.40;10.57;;;;;;;;;;5030757;28;20028;-61
2022/10/26 05:11:12;;;;;;;13.75;9.93;;;;;;;;;;5030751;28;20427;-61
2022/10/26 05:13:37;;;;;;;13.40;10.93;;;;;;;;;;5028898;28;20067;-61
2022/10/26 05:16:02;;;;;;;12.45;8.07;;;;;;;;;;5030547;28;20045;-61
2022/10/26 05:18:27;;;;;;;14.87;9.23;;;;;;;;;;5029072;28;20040;-61
2022/10/26 05:20:52;;;;;;;17.67;8.82;;;;;;;;;;5030100;28;20447;-61
2022/10/26 05:23:18;;;;;;;13.98;9.85;;;;;;;;;;5029277;28;20068;-61
2022/10/26 05:25:43;;;;;;;25.55;10.27;;;;;;;;;;5030032;28;20489;-61
2022/10/26 05:28:12;;;;;;;20.27;9.85;;;;;;;;;;5028113;28;20041;-61
2022/10/26 05:30:37;;;;;;;13.60;8.82;;;;;;;;;;5030652;28;20021;-61
2022/10/26 05:33:02;;;;;;;14.37;8.73;;;;;;;;;;5029029;28;20393;-61
2022/10/26 05:35:28;;;;;;;15.32;9.85;;;;;;;;;;5029317;28;20049;-61
2022/10/26 05:37:53;;;;;;;12.73;9.25;;;;;;;;;;5029175;28;20400;-62
2022/10/26 05:40:19;;;;;;;11.50;9.38;;;;;;;;;;5030555;28;20536;-62
2022/10/26 05:42:44;;;;;;;9.43;8.30;;;;;;;;;;5028172;28;20045;-62
2022/10/26 05:45:09;;;;;;;16.40;9.52;;;;;;;;;;5030283;28;20025;-62
2022/10/26 05:47:38;;;;;;;20.15;10.18;;;;;;;;;;5028605;28;20038;-62
2022/10/26 05:50:03;;;;;;;11.02;9.90;;;;;;;;;;5029987;28;20014;-62
2022/10/26 05:52:28;;;;;;;8.63;7.70;;;;;;;;;;5031134;28;20107;-62
2022/10/26 05:54:54;;;;;;;14.70;9.80;;;;;;;;;;5033729;28;20021;-62
2022/10/26 05:57:19;;;;;;;14.63;8.25;;;;;;;;;;5031802;28;20049;-62
2022/10/26 05:59:44;;;;;;;14.25;8.80;;;;;;;;;;5033041;28;20562;-63
2022/10/26 06:02:32;;;;;;;15.70;10.07;;;;;;;;;;5031722;28;20041;-63
2022/10/26 06:05:01;;;;;;;8.77;7.22;;;;;;;;;;5031789;28;20441;-63
2022/10/26 06:07:26;;;;;;;10.60;8.00;;;;;;;;;;5031269;28;20037;-63
2022/10/26 06:09:52;;;;;;;11.07;8.02;;;;;;;;;;5033434;28;20053;-62
2022/10/26 06:12:17;;;;;;;21.25;8.23;;;;;;;;;;5031281;28;20034;-63
2022/10/26 06:14:42;;;;;;;13.23;8.80;;;;;;;;;;5033832;28;20021;-63
2022/10/26 06:17:26;;;;;;;11.55;8.20;;;;;;;;;;5031946;28;20029;-62
2022/10/26 06:20:14;;;;;;;16.23;8.50;;;;;;;;;;5032961;28;20026;-62
2022/10/26 06:22:51;;;;;;;16.25;8.77;;;;;;;;;;5031822;28;20092;-59
2022/10/26 06:25:22;;;;;;;16.13;8.20;;;;;;;;;;5033468;28;20032;-59
2022/10/26 06:27:55;;;;;;;14.52;7.78;;;;;;;;;;5030021;28;20083;-60
2022/10/26 06:30:22;;;;;;;17.67;9.52;;;;;;;;;;5033292;28;20368;-64
2022/10/26 06:32:48;;;;;;;18.45;8.95;;;;;;;;;;5031603;28;20112;-59
2022/10/26 06:35:13;;;;;;;13.93;8.60;;;;;;;;;;5032297;28;20195;-59
2022/10/26 06:37:39;;;;;;;14.73;10.30;;;;;;;;;;5031546;28;20409;-59
2022/10/26 06:40:05;;;;;;;18.98;11.05;;;;;;;;;;5032332;28;20459;-59
2022/10/26 06:42:31;;;;;;;15.23;10.07;;;;;;;;;;5030518;28;20037;-59
2022/10/26 06:44:56;;;;;;;14.95;9.63;;;;;;;;;;5032852;28;20392;-60
2022/10/26 06:47:32;;;;;;;19.52;9.10;;;;;;;;;;5031393;28;20048;-59
2022/10/26 06:49:58;;;;;;;12.68;9.10;;;;;;;;;;5032160;28;20114;-59
2022/10/26 06:52:32;;;;;;;15.00;9.93;;;;;;;;;;5031205;28;20080;-59
2022/10/26 06:54:58;;;;;;;15.88;7.50;;;;;;;;;;5030744;28;20033;-59
2022/10/26 06:57:27;;;;;;;14.98;9.48;;;;;;;;;;5028205;28;20030;-60
2022/10/26 07:00:03;;;;;;;12.02;8.23;;;;;;;;;;5032574;28;20025;-60
2022/10/26 07:02:28;;;;;;;14.43;7.63;;;;;;;;;;5029649;28;20037;-59
2022/10/26 07:04:54;;;;;;;19.77;8.90;;;;;;;;;;5029527;28;20093;-60
2022/10/26 07:07:20;;;;;;;10.63;8.30;;;;;;;;;;5031102;28;20823;-60
2022/10/26 07:09:45;;;;;;;16.35;10.43;;;;;;;;;;5031243;28;20022;-60
2022/10/26 07:12:11;;;;;;;13.63;10.15;;;;;;;;;;5028883;28;20125;-60
2022/10/26 07:14:36;;;;;;;12.77;8.65;;;;;;;;;;5030722;28;20523;-60
2022/10/26 07:17:01;;;;;;;11.40;9.98;;;;;;;;;;5027707;28;20504;-59
2022/10/26 07:19:26;;;;;;;15.40;8.13;;;;;;;;;;5042232;28;20104;-59
2022/10/26 07:22:01;;;;;;;7.07;6.32;;;;;;;;;;5029615;28;20630;-58
2022/10/26 07:24:26;;;;;;;8.77;7.13;;;;;;;;;;5026243;28;20503;-60
2022/10/26 07:26:55;;;;;;;8.77;6.53;;;;;;;;;;5028294;28;20152;-59
2022/10/26 07:29:20;;;;;;;;;;;;;;;;;;5031791;28;20025;-59
2022/10/26 07:31:45;;;;;;;8.32;7.00;;;;;;;;;;5028779;28;19924;-58
2022/10/26 07:34:10;;;;;;;17.10;6.87;;;;;;;;;;5028590;28;20109;-59
2022/10/26 07:36:36;;;;;;;13.00;7.22;;;;;;;;;;5028688;28;20037;-60
2022/10/26 07:39:02;;;;;;;8.63;5.80;;;;;;;;;;5030486;28;20032;-59
2022/10/26 07:41:27;;;;;;;8.38;5.15;;;;;;;;;;5027239;28;20022;-60
2022/10/26 07:43:52;;;;;;;8.02;4.82;;;;;;;;;;5030727;28;20025;-60
2022/10/26 07:46:17;;;;;;;12.50;5.67;;;;;;;;;;5029973;28;20350;-57
2022/10/26 07:48:42;;;;;;;19.20;5.97;;;;;;;;;;5029470;28;21043;-60
2022/10/26 07:51:08;;;;;;;11.45;5.38;;;;;;;;;;5030114;28;20028;-59
2022/10/26 07:53:33;;;;;;;7.43;3.97;;;;;;;;;;5029322;28;20042;-60
2022/10/26 07:55:58;;;;;;;5.83;3.90;;;;;;;;;;5028954;28;20057;-60
2022/10/26 07:58:25;;;;;;;6.75;3.88;;;;;;;;;;5029354;28;20037;-60
2022/10/26 08:00:51;;;;;;;15.60;5.35;;;;;;;;;;5031297;28;20377;-58
2022/10/26 08:03:16;;;;;;;6.30;5.15;;;;;;;;;;5028199;28;20048;-58
2022/10/26 08:05:41;;;;;;;12.75;4.03;;;;;;;;;;5030339;28;20030;-58
2022/10/26 08:08:06;;;;;;;7.77;4.93;;;;;;;;;;5028885;28;20049;-58
2022/10/26 08:10:32;;;;;;;9.48;3.28;;;;;;;;;;5029882;28;20471;-58
2022/10/26 08:12:57;;;;;;;4.75;3.70;;;;;;;;;;5028189;28;20038;-58
2022/10/26 08:15:22;;;;;;;5.57;2.72;;;;;;;;;;5030079;28;20025;-58
2022/10/26 08:17:47;;;;;;;7.10;2.78;;;;;;;;;;5028584;28;20033;-59
2022/10/26 08:20:12;;;;;;;5.65;4.40;;;;;;;;;;5029516;28;20060;-60
2022/10/26 08:22:37;;;;;;;4.75;3.15;;;;;;;;;;5028582;28;20377;-60
2022/10/26 08:25:03;;;;;;;11.27;4.75;;;;;;;;;;5030534;28;20025;-60
2022/10/26 08:27:28;;;;;;;15.20;4.05;;;;;;;;;;5026887;28;20397;-58
2022/10/26 08:29:53;;;;;;;6.93;3.60;;;;;;;;;;5030492;28;20036;-58
2022/10/26 08:32:18;;;;;;;17.27;4.35;;;;;;;;;;5028315;28;20125;-58
2022/10/26 08:34:43;;;;;;;7.77;2.83;;;;;;;;;;5028681;28;20177;-58
2022/10/26 08:37:08;;;;;;;3.17;2.60;;;;;;;;;;5028337;28;20132;-58
2022/10/26 08:39:34;;;;;;;4.03;2.78;;;;;;;;;;5019099;28;20026;-58
2022/10/26 08:42:05;;;;;;;11.97;3.87;;;;;;;;;;5027165;28;20107;-58
2022/10/26 08:44:36;;;;;;;5.38;3.42;;;;;;;;;;5029229;28;20060;-58
2022/10/26 08:47:04;;;;;;;5.85;2.83;;;;;;;;;;5028970;28;20083;-58
2022/10/26 08:49:31;;;;;;;8.68;3.03;;;;;;;;;;5028491;28;20033;-58
2022/10/26 08:51:59;;;;;;;9.88;3.92;;;;;;;;;;5028695;28;20029;-58
2022/10/26 08:54:32;;;;;;;7.28;2.33;;;;;;;;;;5029707;28;20057;-58
2022/10/26 08:56:59;;;;;;;6.47;2.80;;;;;;;;;;5025302;28;20040;-58
2022/10/26 08:59:27;;;;;;;2.85;2.33;;;;;;;;;;5029316;28;20032;-58
2022/10/26 09:01:52;;;;;;;9.63;3.70;;;;;;;;;;5029244;28;20495;-58
2022/10/26 09:04:19;;;;;;;9.63;2.45;;;;;;;;;;5028678;28;20160;-58
2022/10/26 09:06:44;;;;;;;10.00;4.18;;;;;;;;;;5025498;28;20065;-58
2022/10/26 09:09:34;;;;;;;4.85;2.80;;;;;;;;;;5029008;28;20377;-58
2022/10/26 09:12:18;;;;;;;7.53;2.58;;;;;;;;;;5021896;28;20038;-58
2022/10/26 09:14:46;;;;;;;7.50;3.17;;;;;;;;;;5029803;28;20028;-58
2022/10/26 09:17:15;;;;;;;15.30;2.47;;;;;;;;;;5028743;28;20428;-58
2022/10/26 09:19:50;;;;;;;14.65;4.60;;;;;;;;;;5029942;28;20601;-58
2022/10/26 09:22:22;;;;;;;8.38;3.55;;;;;;;;;;5029042;28;20114;-58
2022/10/26 09:24:49;;;;;;;4.13;3.13;;;;;;;;;;5029814;28;20362;-58
2022/10/26 09:27:20;;;;;;;8.85;2.92;;;;;;;;;;5032521;28;20297;-58
2022/10/26 09:29:46;;;;;;;8.82;3.63;;;;;;;;;;5032393;28;20468;-58
2022/10/26 09:32:15;;;;;;;3.80;2.78;;;;;;;;;;5032372;28;20033;-59
2022/10/26 09:34:47;;;;;;;4.10;2.75;;;;;;;;;;5033691;28;20087;-58
2022/10/26 09:37:15;;;;;;;6.50;2.97;;;;;;;;;;5032496;28;20120;-58
2022/10/26 09:39:59;;;;;;;2.60;2.40;;;;;;;;;;5033680;28;20083;-58
2022/10/26 09:42:28;;;;;;;10.27;3.50;;;;;;;;;;5032145;28;20045;-58
2022/10/26 09:45:02;;;;;;;5.93;2.53;;;;;;;;;;5034090;28;20024;-58
2022/10/26 09:47:30;;;;;;;3.10;2.63;;;;;;;;;;5031462;28;20515;-58
2022/10/26 09:50:00;;;;;;;9.98;3.75;;;;;;;;;;5033628;28;20116;-58
2022/10/26 09:52:25;;;;;;;6.50;3.10;;;;;;;;;;5031861;28;20034;-58
2022/10/26 09:54:50;;;;;;;12.17;4.57;;;;;;;;;;5033069;28;20521;-58
2022/10/26 09:57:17;;;;;;;3.37;2.20;;;;;;;;;;5032154;28;20834;-58
2022/10/26 09:59:42;;;;;;;5.55;3.03;;;;;;;;;;5033350;28;20546;-58
2022/10/26 10:02:26;;;;;;;4.75;2.78;;;;;;;;;;5031956;28;20124;-58
2022/10/26 10:04:51;;;;;;;6.72;2.90;;;;;;;;;;5032889;28;20030;-58
2022/10/26 10:07:16;;;;;;;5.38;3.03;;;;;;;;;;5031113;28;20045;-58
2022/10/26 10:09:41;;;;;;;13.82;3.22;;;;;;;;;;5028019;28;20017;-58
2022/10/26 10:12:17;;;;;;;8.00;4.90;;;;;;;;;;5031240;28;20511;-58
2022/10/26 10:14:53;;;;;;;15.35;3.55;;;;;;;;;;5032711;28;20021;-58
2022/10/26 10:17:20;;;;;;;4.88;2.65;;;;;;;;;;5030905;28;20034;-58
2022/10/26 10:19:45;;;;;;;4.55;2.83;;;;;;;;;;5032660;28;20030;-58
2022/10/26 10:22:11;;;;;;;8.32;2.78;;;;;;;;;;5031432;28;20080;-58
2022/10/26 10:24:39;;;;;;;5.88;3.72;;;;;;;;;;5032580;28;20429;-59
2022/10/26 10:27:15;;;;;;;6.40;3.90;;;;;;;;;;5031089;28;20049;-58
2022/10/26 10:29:41;;;;;;;6.82;4.00;;;;;;;;;;5032774;28;20427;-58
2022/10/26 10:32:14;;;;;;;7.32;3.15;;;;;;;;;;5030155;28;20040;-58
2022/10/26 10:34:39;;;;;;;7.38;3.15;;;;;;;;;;5027242;28;20044;-58
2022/10/26 10:37:05;;;;;;;27.73;4.57;;;;;;;;;;5030641;28;20505;-58
2022/10/26 10:39:40;;;;;;;4.23;2.70;;;;;;;;;;5031775;28;20033;-58
2022/10/26 10:42:12;;;;;;;5.13;3.75;;;;;;;;;;5031532;28;20559;-58
2022/10/26 10:44:38;;;;;;;7.97;2.70;;;;;;;;;;5032424;28;20017;-57
2022/10/26 10:47:05;;;;;;;3.88;2.92;;;;;;;;;;5030341;28;20041;-58
2022/10/26 10:49:30;;;;;;;5.13;3.05;;;;;;;;;;5032096;28;20025;-58
2022/10/26 10:51:55;;;;;;;5.03;2.85;;;;;;;;;;5030770;28;20527;-58
2022/10/26 10:54:31;;;;;;;12.45;3.35;;;;;;;;;;5031922;28;20021;-57
2022/10/26 10:57:06;;;;;;;7.70;2.75;;;;;;;;;;5030845;28;20117;-58
2022/10/26 10:59:34;;;;;;;6.25;2.25;;;;;;;;;;5032026;28;20017;-58
2022/10/26 11:02:16;;;;;;;5.05;1.98;;;;;;;;;;5030642;28;20119;-58
2022/10/26 11:04:44;;;;;;;6.90;3.15;;;;;;;;;;5032323;28;20014;-58
2022/10/26 11:07:10;;;;;;;4.50;2.90;;;;;;;;;;5030862;28;20087;-58
2022/10/26 11:09:38;;;;;;;7.63;3.08;;;;;;;;;;5030688;28;20051;-58
2022/10/26 11:12:10;;;;;;;8.85;2.80;;;;;;;;;;5021485;28;20125;-58
2022/10/26 11:14:44;;;;;;;4.65;2.42;;;;;;;;;;5021002;28;20017;-58
2022/10/26 11:17:23;;;;;;;14.85;5.45;;;;;;;;;;5010429;28;20509;-58
2022/10/26 11:20:23;;;;;;;6.97;3.47;;;;;;;;;;5027974;28;20052;-57
2022/10/26 11:22:51;;;;;;;4.30;2.53;;;;;;;;;;4975502;28;20405;-58
2022/10/26 11:25:35;;;;;;;7.30;2.70;;;;;;;;;;5024091;28;20040;-58
2022/10/26 11:28:09;;;;;;;11.05;3.78;;;;;;;;;;5030526;28;20029;-58
2022/10/26 11:30:35;;;;;;;5.20;3.22;;;;;;;;;;5031026;28;20049;-57
2022/10/26 11:33:00;;;;;;;8.45;2.85;;;;;;;;;;5025428;28;20081;-57
2022/10/26 11:35:31;;;;;;;6.80;2.83;;;;;;;;;;5031277;28;20053;-58
2022/10/26 11:38:11;;;;;;;8.20;3.35;;;;;;;;;;5029945;28;20056;-57
2022/10/26 11:40:57;;;;;;;7.47;3.33;;;;;;;;;;5031203;28;20554;-58
2022/10/26 11:43:27;;;;;;;5.95;2.45;;;;;;;;;;5029894;28;20041;-58
2022/10/26 11:46:04;;;;;;;8.93;3.65;;;;;;;;;;5031288;28;20060;-58
2022/10/26 11:48:40;;;;;;;7.72;3.58;;;;;;;;;;5028269;28;20576;-57
2022/10/26 11:51:10;;;;;;;6.88;3.25;;;;;;;;;;5030264;28;20025;-57
2022/10/26 11:53:38;;;;;;;13.27;2.72;;;;;;;;;;5034759;28;20069;-58
2022/10/26 11:56:09;;;;;;;8.38;4.10;;;;;;;;;;5031157;28;20016;-58
2022/10/26 11:58:36;;;;;;;5.10;3.28;;;;;;;;;;5029425;28;20047;-58
2022/10/26 12:01:03;;;;;;;5.30;3.80;;;;;;;;;;5030742;28;20108;-57
2022/10/26 12:03:31;;;;;;;5.18;2.50;;;;;;;;;;5029448;28;20029;-58
2022/10/26 12:05:56;;;;;;;5.90;3.53;;;;;;;;;;5030131;28;20095;-58
2022/10/26 12:08:42;;;;;;;11.33;4.60;;;;;;;;;;5029441;28;20041;-58
2022/10/26 12:11:12;;;;;;;9.30;5.10;;;;;;;;;;5031079;28;20982;-57
2022/10/26 12:13:46;;;;;;;15.15;5.68;;;;;;;;;;5029104;28;20087;-60
2022/10/26 12:16:27;;;;;;;7.05;3.78;;;;;;;;;;5030399;28;20025;-57
2022/10/26 12:19:01;;;;;;;5.25;3.38;;;;;;;;;;5029560;28;20034;-57
2022/10/26 12:21:27;;;;;;;5.72;4.07;;;;;;;;;;5018287;28;20029;-57
2022/10/26 12:23:53;;;;;;;10.00;3.47;;;;;;;;;;5030511;28;20025;-57
2022/10/26 12:26:21;;;;;;;8.48;3.75;;;;;;;;;;5029495;28;20021;-57
2022/10/26 12:28:46;;;;;;;7.65;3.75;;;;;;;;;;5030308;28;20451;-57
2022/10/26 12:31:44;;;;;;;8.50;3.35;;;;;;;;;;5030272;28;20104;-60
2022/10/26 12:34:10;;;;;;;10.30;4.57;;;;;;;;;;4974796;28;20112;-60
2022/10/26 12:36:53;;;;;;;9.45;3.97;;;;;;;;;;5027372;28;20041;-60
2022/10/26 12:39:24;;;;;;;10.10;4.25;;;;;;;;;;5030741;28;20029;-60
2022/10/26 12:41:57;;;;;;;7.97;3.42;;;;;;;;;;5029038;28;20056;-59
2022/10/26 12:44:40;;;;;;;9.77;3.72;;;;;;;;;;5029404;28;20022;-60
2022/10/26 12:47:05;;;;;;;7.38;3.78;;;;;;;;;;5027263;28;20040;-60
2022/10/26 12:49:49;;;;;;;7.00;3.70;;;;;;;;;;5030289;28;20025;-60
2022/10/26 12:52:19;;;;;;;13.80;6.90;;;;;;;;;;5028658;28;20060;-60
2022/10/26 12:54:50;;;;;;;7.20;4.53;;;;;;;;;;5030220;28;20032;-57
2022/10/26 12:57:25;;;;;;;16.58;4.78;;;;;;;;;;5027323;28;20041;-58
2022/10/26 12:59:59;;;;;;;11.18;4.30;;;;;;;;;;5030554;28;20156;-58
2022/10/26 13:02:38;;;;;;;9.50;4.55;;;;;;;;;;5032925;28;20045;-57
2022/10/26 13:05:03;;;;;;;10.43;4.25;;;;;;;;;;5034638;28;20060;-58
2022/10/26 13:07:38;;;;;;;11.73;5.20;;;;;;;;;;5031967;28;20058;-57
2022/10/26 13:10:04;;;;;;;8.65;4.43;;;;;;;;;;5033924;28;20036;-57
2022/10/26 13:12:36;;;;;;;7.17;3.90;;;;;;;;;;5032849;28;20037;-58
2022/10/26 13:15:03;;;;;;;5.03;3.63;;;;;;;;;;5034472;28;20022;-57
2022/10/26 13:17:30;;;;;;;5.55;4.07;;;;;;;;;;5032727;28;20393;-57
2022/10/26 13:20:00;;;;;;;9.32;3.80;;;;;;;;;;5034885;28;20044;-57
2022/10/26 13:22:25;;;;;;;10.57;5.22;;;;;;;;;;5031381;28;20508;-57
2022/10/26 13:24:52;;;;;;;6.60;3.92;;;;;;;;;;5034435;28;20081;-59
2022/10/26 13:27:17;;;;;;;13.23;4.05;;;;;;;;;;5033176;28;20064;-60
2022/10/26 13:30:01;;;;;;;11.80;4.15;;;;;;;;;;5033898;28;20021;-57
2022/10/26 13:32:27;;;;;;;7.35;4.18;;;;;;;;;;5032726;28;20045;-58
2022/10/26 13:34:53;;;;;;;8.05;4.07;;;;;;;;;;5034239;28;20036;-58
2022/10/26 13:37:20;;;;;;;4.53;3.75;;;;;;;;;;5031900;28;20558;-60
2022/10/26 13:39:46;;;;;;;5.93;3.45;;;;;;;;;;5033902;28;20413;-60
2022/10/26 13:42:14;;;;;;;12.20;3.97;;;;;;;;;;5032818;28;20033;-59
2022/10/26 13:44:43;;;;;;;7.15;4.95;;;;;;;;;;5033516;28;20018;-57
2022/10/26 13:47:16;;;;;;;5.18;3.13;;;;;;;;;;5032796;28;20030;-57
2022/10/26 13:49:44;;;;;;;9.02;3.17;;;;;;;;;;5033960;28;20026;-57
2022/10/26 13:52:17;;;;;;;6.30;3.70;;;;;;;;;;5032228;28;20127;-57
2022/10/26 13:55:02;;;;;;;9.57;3.58;;;;;;;;;;5033428;28;20033;-57
2022/10/26 13:57:38;;;;;;;12.13;3.72;;;;;;;;;;5031041;28;20467;-57
2022/10/26 14:00:08;;;;;;;14.00;5.38;;;;;;;;;;5025524;28;20099;-59
2022/10/26 14:02:33;;;;;;;11.65;3.72;;;;;;;;;;5031318;28;20501;-57
2022/10/26 14:04:59;;;;;;;7.75;3.17;;;;;;;;;;5033065;28;20036;-57
2022/10/26 14:07:29;;;;;;;5.25;2.80;;;;;;;;;;5031403;28;20064;-57
2022/10/26 14:09:55;;;;;;;14.73;3.65;;;;;;;;;;5032694;28;20104;-57
2022/10/26 14:12:20;;;;;;;8.15;3.55;;;;;;;;;;5030951;28;20050;-57
2022/10/26 14:14:46;;;;;;;5.95;3.00;;;;;;;;;;5033271;28;20060;-57
2022/10/26 14:17:17;;;;;;;5.38;3.50;;;;;;;;;;5031290;28;20442;-60
2022/10/26 14:19:43;;;;;;;6.22;3.97;;;;;;;;;;5033234;28;20163;-57
2022/10/26 14:22:14;;;;;;;7.35;3.55;;;;;;;;;;5031401;28;20485;-57
2022/10/26 14:24:40;;;;;;;6.35;3.67;;;;;;;;;;5033350;28;20437;-57
2022/10/26 14:27:13;;;;;;;9.77;5.07;;;;;;;;;;5032119;28;20068;-57
2022/10/26 14:29:38;;;;;;;11.35;3.33;;;;;;;;;;5032674;28;20021;-57
2022/10/26 14:32:18;;;;;;;11.10;3.45;;;;;;;;;;5031604;28;20452;-57
2022/10/26 14:34:43;;;;;;;9.43;2.97;;;;;;;;;;5032086;28;20033;-57
2022/10/26 14:37:10;;;;;;;9.38;2.78;;;;;;;;;;5031020;28;20033;-59
2022/10/26 14:39:35;;;;;;;9.00;3.50;;;;;;;;;;5027411;28;20025;-60